sensor_id;sensor_type;location;lat;lon;timestamp;P1;durP1;ratioP1;P2;durP2;ratioP2
58758;SDS011;46777;47.482;19.054;2022-08-19T00:00:07;14.20;;;12.23;;
58758;SDS011;46777;47.482;19.054;2022-08-19T00:02:53;12.77;;;11.57;;
58758;SDS011;46777;47.482;19.054;2022-08-19T00:05:38;14.70;;;11.55;;
58758;SDS011;46777;47.482;19.054;2022-08-19T00:08:22;12.63;;;11.40;;
58758;SDS011;46777;47.482;19.054;2022-08-19T00:11:07;12.40;;;11.10;;
58758;SDS011;46777;47.482;19.054;2022-08-19T00:13:53;12.75;;;11.43;;
58758;SDS011;46777;47.482;19.054;2022-08-19T00:16:38;12.95;;;11.65;;
58758;SDS011;46777;47.482;19.054;2022-08-19T00:19:25;13.65;;;12.35;;
58758;SDS011;46777;47.482;19.054;2022-08-19T00:22:10;12.57;;;11.38;;
58758;SDS011;46777;47.482;19.054;2022-08-19T00:24:55;13.98;;;12.55;;
58758;SDS011;46777;47.482;19.054;2022-08-19T00:27:40;14.32;;;12.63;;
58758;SDS011;46777;47.482;19.054;2022-08-19T00:30:25;12.70;;;11.25;;
58758;SDS011;46777;47.482;19.054;2022-08-19T00:33:12;12.20;;;11.00;;
58758;SDS011;46777;47.482;19.054;2022-08-19T00:35:58;13.38;;;12.05;;
58758;SDS011;46777;47.482;19.054;2022-08-19T00:38:43;12.50;;;11.50;;
58758;SDS011;46777;47.482;19.054;2022-08-19T00:41:28;17.75;;;12.52;;
58758;SDS011;46777;47.482;19.054;2022-08-19T00:44:15;14.30;;;12.80;;
58758;SDS011;46777;47.482;19.054;2022-08-19T00:47:04;13.57;;;12.20;;
58758;SDS011;46777;47.482;19.054;2022-08-19T00:49:53;13.60;;;12.18;;
58758;SDS011;46777;47.482;19.054;2022-08-19T00:52:41;13.38;;;12.00;;
58758;SDS011;46777;47.482;19.054;2022-08-19T00:55:29;13.30;;;12.00;;
58758;SDS011;46777;47.482;19.054;2022-08-19T00:58:17;13.27;;;11.98;;
58758;SDS011;46777;47.482;19.054;2022-08-19T01:01:04;13.27;;;11.70;;
58758;SDS011;46777;47.482;19.054;2022-08-19T01:03:49;15.02;;;12.70;;
58758;SDS011;46777;47.482;19.054;2022-08-19T01:06:35;15.40;;;13.07;;
58758;SDS011;46777;47.482;19.054;2022-08-19T01:09:21;14.43;;;13.10;;
58758;SDS011;46777;47.482;19.054;2022-08-19T01:12:06;13.43;;;12.13;;
58758;SDS011;46777;47.482;19.054;2022-08-19T01:14:52;13.80;;;11.95;;
58758;SDS011;46777;47.482;19.054;2022-08-19T01:17:39;13.38;;;12.18;;
58758;SDS011;46777;47.482;19.054;2022-08-19T01:20:25;13.55;;;12.23;;
58758;SDS011;46777;47.482;19.054;2022-08-19T01:23:10;13.75;;;12.30;;
58758;SDS011;46777;47.482;19.054;2022-08-19T01:25:56;20.85;;;12.52;;
58758;SDS011;46777;47.482;19.054;2022-08-19T01:28:41;13.75;;;12.45;;
58758;SDS011;46777;47.482;19.054;2022-08-19T01:31:28;13.18;;;11.88;;
58758;SDS011;46777;47.482;19.054;2022-08-19T01:34:16;14.13;;;12.82;;
58758;SDS011;46777;47.482;19.054;2022-08-19T01:37:05;13.65;;;12.40;;
58758;SDS011;46777;47.482;19.054;2022-08-19T01:39:52;14.15;;;12.70;;
58758;SDS011;46777;47.482;19.054;2022-08-19T01:42:37;14.68;;;13.23;;
58758;SDS011;46777;47.482;19.054;2022-08-19T01:45:24;12.93;;;11.70;;
58758;SDS011;46777;47.482;19.054;2022-08-19T01:48:10;13.40;;;11.98;;
58758;SDS011;46777;47.482;19.054;2022-08-19T01:50:55;15.00;;;12.82;;
58758;SDS011;46777;47.482;19.054;2022-08-19T01:53:40;14.45;;;13.00;;
58758;SDS011;46777;47.482;19.054;2022-08-19T01:56:26;14.10;;;12.60;;
58758;SDS011;46777;47.482;19.054;2022-08-19T01:59:12;14.75;;;12.98;;
58758;SDS011;46777;47.482;19.054;2022-08-19T02:02:00;14.27;;;12.38;;
58758;SDS011;46777;47.482;19.054;2022-08-19T02:04:45;14.15;;;12.85;;
58758;SDS011;46777;47.482;19.054;2022-08-19T02:07:30;14.18;;;12.75;;
58758;SDS011;46777;47.482;19.054;2022-08-19T02:10:18;16.00;;;14.38;;
58758;SDS011;46777;47.482;19.054;2022-08-19T02:13:04;14.20;;;12.75;;
58758;SDS011;46777;47.482;19.054;2022-08-19T02:15:49;15.70;;;13.45;;
58758;SDS011;46777;47.482;19.054;2022-08-19T02:18:34;15.18;;;13.48;;
58758;SDS011;46777;47.482;19.054;2022-08-19T02:21:20;20.02;;;14.57;;
58758;SDS011;46777;47.482;19.054;2022-08-19T02:24:06;15.60;;;13.32;;
58758;SDS011;46777;47.482;19.054;2022-08-19T02:26:51;16.48;;;12.52;;
58758;SDS011;46777;47.482;19.054;2022-08-19T02:29:35;13.90;;;12.50;;
58758;SDS011;46777;47.482;19.054;2022-08-19T02:32:20;15.15;;;13.63;;
58758;SDS011;46777;47.482;19.054;2022-08-19T02:35:05;14.70;;;13.13;;
58758;SDS011;46777;47.482;19.054;2022-08-19T02:37:50;14.50;;;13.13;;
58758;SDS011;46777;47.482;19.054;2022-08-19T02:41:01;14.82;;;13.38;;
58758;SDS011;46777;47.482;19.054;2022-08-19T02:43:48;14.77;;;13.25;;
58758;SDS011;46777;47.482;19.054;2022-08-19T02:46:33;15.15;;;13.68;;
58758;SDS011;46777;47.482;19.054;2022-08-19T02:49:18;17.70;;;16.30;;
58758;SDS011;46777;47.482;19.054;2022-08-19T02:52:03;14.07;;;12.77;;
58758;SDS011;46777;47.482;19.054;2022-08-19T02:54:48;14.13;;;12.77;;
58758;SDS011;46777;47.482;19.054;2022-08-19T02:57:33;13.77;;;12.48;;
58758;SDS011;46777;47.482;19.054;2022-08-19T03:00:18;15.20;;;13.80;;
58758;SDS011;46777;47.482;19.054;2022-08-19T03:03:03;14.85;;;13.45;;
58758;SDS011;46777;47.482;19.054;2022-08-19T03:05:48;16.27;;;14.95;;
58758;SDS011;46777;47.482;19.054;2022-08-19T03:08:32;15.63;;;14.32;;
58758;SDS011;46777;47.482;19.054;2022-08-19T03:14:30;15.30;;;13.77;;
58758;SDS011;46777;47.482;19.054;2022-08-19T03:17:15;15.68;;;14.07;;
58758;SDS011;46777;47.482;19.054;2022-08-19T03:20:00;15.63;;;14.13;;
58758;SDS011;46777;47.482;19.054;2022-08-19T03:22:45;14.65;;;13.25;;
58758;SDS011;46777;47.482;19.054;2022-08-19T03:25:30;15.82;;;14.23;;
58758;SDS011;46777;47.482;19.054;2022-08-19T03:28:15;15.50;;;13.98;;
58758;SDS011;46777;47.482;19.054;2022-08-19T03:31:02;14.73;;;13.48;;
58758;SDS011;46777;47.482;19.054;2022-08-19T03:33:49;15.07;;;13.70;;
58758;SDS011;46777;47.482;19.054;2022-08-19T03:36:34;15.02;;;13.73;;
58758;SDS011;46777;47.482;19.054;2022-08-19T03:39:19;15.52;;;14.05;;
58758;SDS011;46777;47.482;19.054;2022-08-19T03:42:05;14.93;;;13.52;;
58758;SDS011;46777;47.482;19.054;2022-08-19T03:44:50;14.57;;;13.30;;
58758;SDS011;46777;47.482;19.054;2022-08-19T03:47:35;14.50;;;13.30;;
58758;SDS011;46777;47.482;19.054;2022-08-19T03:50:19;15.13;;;13.63;;
58758;SDS011;46777;47.482;19.054;2022-08-19T03:53:04;14.90;;;13.52;;
58758;SDS011;46777;47.482;19.054;2022-08-19T03:55:50;15.90;;;14.30;;
58758;SDS011;46777;47.482;19.054;2022-08-19T03:58:35;15.00;;;13.60;;
58758;SDS011;46777;47.482;19.054;2022-08-19T04:01:23;15.55;;;14.10;;
58758;SDS011;46777;47.482;19.054;2022-08-19T04:04:10;15.13;;;13.73;;
58758;SDS011;46777;47.482;19.054;2022-08-19T04:06:55;15.38;;;13.98;;
58758;SDS011;46777;47.482;19.054;2022-08-19T04:09:40;15.80;;;14.50;;
58758;SDS011;46777;47.482;19.054;2022-08-19T04:12:26;15.35;;;13.95;;
58758;SDS011;46777;47.482;19.054;2022-08-19T04:15:11;16.92;;;15.13;;
58758;SDS011;46777;47.482;19.054;2022-08-19T04:17:55;15.48;;;14.07;;
58758;SDS011;46777;47.482;19.054;2022-08-19T04:20:41;15.77;;;14.13;;
58758;SDS011;46777;47.482;19.054;2022-08-19T04:23:31;16.10;;;14.63;;
58758;SDS011;46777;47.482;19.054;2022-08-19T04:26:17;15.38;;;13.77;;
58758;SDS011;46777;47.482;19.054;2022-08-19T04:29:08;15.65;;;14.20;;
58758;SDS011;46777;47.482;19.054;2022-08-19T04:31:55;15.07;;;13.68;;
58758;SDS011;46777;47.482;19.054;2022-08-19T04:34:41;16.15;;;14.48;;
58758;SDS011;46777;47.482;19.054;2022-08-19T04:37:26;16.15;;;14.57;;
58758;SDS011;46777;47.482;19.054;2022-08-19T04:40:11;15.80;;;14.30;;
58758;SDS011;46777;47.482;19.054;2022-08-19T04:43:15;15.63;;;14.02;;
58758;SDS011;46777;47.482;19.054;2022-08-19T04:46:07;15.95;;;14.38;;
58758;SDS011;46777;47.482;19.054;2022-08-19T04:48:53;15.20;;;13.68;;
58758;SDS011;46777;47.482;19.054;2022-08-19T04:51:39;15.35;;;13.77;;
58758;SDS011;46777;47.482;19.054;2022-08-19T04:54:26;15.50;;;13.82;;
58758;SDS011;46777;47.482;19.054;2022-08-19T04:57:11;14.98;;;13.52;;
58758;SDS011;46777;47.482;19.054;2022-08-19T04:59:56;15.27;;;13.75;;
58758;SDS011;46777;47.482;19.054;2022-08-19T05:02:41;15.43;;;14.00;;
58758;SDS011;46777;47.482;19.054;2022-08-19T05:05:25;14.27;;;12.85;;
58758;SDS011;46777;47.482;19.054;2022-08-19T05:08:15;15.75;;;14.25;;
58758;SDS011;46777;47.482;19.054;2022-08-19T05:11:08;15.75;;;14.00;;
58758;SDS011;46777;47.482;19.054;2022-08-19T05:13:55;15.88;;;14.25;;
58758;SDS011;46777;47.482;19.054;2022-08-19T05:16:40;15.48;;;13.95;;
58758;SDS011;46777;47.482;19.054;2022-08-19T05:19:25;15.88;;;14.20;;
58758;SDS011;46777;47.482;19.054;2022-08-19T05:22:29;14.85;;;13.52;;
58758;SDS011;46777;47.482;19.054;2022-08-19T05:25:19;16.25;;;14.63;;
58758;SDS011;46777;47.482;19.054;2022-08-19T05:28:04;15.52;;;13.98;;
58758;SDS011;46777;47.482;19.054;2022-08-19T05:30:49;14.60;;;13.05;;
58758;SDS011;46777;47.482;19.054;2022-08-19T05:33:35;14.70;;;13.30;;
58758;SDS011;46777;47.482;19.054;2022-08-19T05:36:19;14.77;;;13.45;;
58758;SDS011;46777;47.482;19.054;2022-08-19T05:39:05;14.63;;;13.20;;
58758;SDS011;46777;47.482;19.054;2022-08-19T05:41:56;14.70;;;13.15;;
58758;SDS011;46777;47.482;19.054;2022-08-19T05:45:02;14.07;;;12.70;;
58758;SDS011;46777;47.482;19.054;2022-08-19T05:47:48;13.90;;;12.50;;
58758;SDS011;46777;47.482;19.054;2022-08-19T05:50:35;13.15;;;11.85;;
58758;SDS011;46777;47.482;19.054;2022-08-19T05:53:20;13.45;;;12.05;;
58758;SDS011;46777;47.482;19.054;2022-08-19T05:56:09;13.18;;;11.95;;
58758;SDS011;46777;47.482;19.054;2022-08-19T05:58:56;14.18;;;12.80;;
58758;SDS011;46777;47.482;19.054;2022-08-19T06:01:43;13.88;;;12.45;;
58758;SDS011;46777;47.482;19.054;2022-08-19T06:04:29;13.63;;;12.32;;
58758;SDS011;46777;47.482;19.054;2022-08-19T06:07:15;15.85;;;13.07;;
58758;SDS011;46777;47.482;19.054;2022-08-19T06:10:01;14.00;;;12.70;;
58758;SDS011;46777;47.482;19.054;2022-08-19T06:12:48;14.25;;;12.85;;
58758;SDS011;46777;47.482;19.054;2022-08-19T06:15:32;14.68;;;13.23;;
58758;SDS011;46777;47.482;19.054;2022-08-19T06:18:17;14.65;;;13.35;;
58758;SDS011;46777;47.482;19.054;2022-08-19T06:21:02;13.70;;;11.95;;
58758;SDS011;46777;47.482;19.054;2022-08-19T06:23:48;12.75;;;11.57;;
58758;SDS011;46777;47.482;19.054;2022-08-19T06:26:35;13.52;;;12.13;;
58758;SDS011;46777;47.482;19.054;2022-08-19T06:29:22;15.60;;;12.45;;
58758;SDS011;46777;47.482;19.054;2022-08-19T06:32:08;13.93;;;12.38;;
58758;SDS011;46777;47.482;19.054;2022-08-19T06:34:53;13.70;;;12.50;;
58758;SDS011;46777;47.482;19.054;2022-08-19T06:37:39;14.07;;;12.63;;
58758;SDS011;46777;47.482;19.054;2022-08-19T06:40:24;12.35;;;11.20;;
58758;SDS011;46777;47.482;19.054;2022-08-19T06:43:11;13.60;;;12.20;;
58758;SDS011;46777;47.482;19.054;2022-08-19T06:45:56;14.25;;;12.18;;
58758;SDS011;46777;47.482;19.054;2022-08-19T06:48:41;13.65;;;12.13;;
58758;SDS011;46777;47.482;19.054;2022-08-19T06:51:26;13.73;;;12.30;;
58758;SDS011;46777;47.482;19.054;2022-08-19T06:54:11;17.75;;;16.30;;
58758;SDS011;46777;47.482;19.054;2022-08-19T06:56:59;14.13;;;12.25;;
58758;SDS011;46777;47.482;19.054;2022-08-19T06:59:47;13.00;;;11.70;;
58758;SDS011;46777;47.482;19.054;2022-08-19T07:02:32;12.60;;;11.30;;
58758;SDS011;46777;47.482;19.054;2022-08-19T07:05:17;13.52;;;11.32;;
58758;SDS011;46777;47.482;19.054;2022-08-19T07:08:02;13.88;;;11.88;;
58758;SDS011;46777;47.482;19.054;2022-08-19T07:10:47;13.73;;;12.32;;
58758;SDS011;46777;47.482;19.054;2022-08-19T07:13:33;13.93;;;12.63;;
58758;SDS011;46777;47.482;19.054;2022-08-19T07:16:20;16.70;;;13.25;;
58758;SDS011;46777;47.482;19.054;2022-08-19T07:19:05;14.35;;;12.65;;
58758;SDS011;46777;47.482;19.054;2022-08-19T07:21:51;14.68;;;13.07;;
58758;SDS011;46777;47.482;19.054;2022-08-19T07:24:38;16.77;;;12.98;;
58758;SDS011;46777;47.482;19.054;2022-08-19T07:27:23;14.05;;;12.25;;
58758;SDS011;46777;47.482;19.054;2022-08-19T07:30:08;14.48;;;13.00;;
58758;SDS011;46777;47.482;19.054;2022-08-19T07:32:54;15.30;;;12.85;;
58758;SDS011;46777;47.482;19.054;2022-08-19T07:35:40;17.35;;;12.68;;
58758;SDS011;46777;47.482;19.054;2022-08-19T07:38:25;14.45;;;12.80;;
58758;SDS011;46777;47.482;19.054;2022-08-19T07:41:10;17.30;;;13.50;;
58758;SDS011;46777;47.482;19.054;2022-08-19T07:44:00;14.07;;;12.38;;
58758;SDS011;46777;47.482;19.054;2022-08-19T07:46:48;14.02;;;12.65;;
58758;SDS011;46777;47.482;19.054;2022-08-19T07:49:35;13.48;;;12.02;;
58758;SDS011;46777;47.482;19.054;2022-08-19T07:52:20;13.35;;;12.18;;
58758;SDS011;46777;47.482;19.054;2022-08-19T07:55:07;13.25;;;12.10;;
58758;SDS011;46777;47.482;19.054;2022-08-19T07:57:54;14.55;;;12.80;;
58758;SDS011;46777;47.482;19.054;2022-08-19T08:00:39;13.00;;;11.70;;
58758;SDS011;46777;47.482;19.054;2022-08-19T08:03:24;13.48;;;11.30;;
58758;SDS011;46777;47.482;19.054;2022-08-19T08:06:29;11.82;;;10.77;;
58758;SDS011;46777;47.482;19.054;2022-08-19T08:09:34;13.55;;;12.27;;
58758;SDS011;46777;47.482;19.054;2022-08-19T08:12:23;12.48;;;11.27;;
58758;SDS011;46777;47.482;19.054;2022-08-19T08:15:14;11.55;;;10.35;;
58758;SDS011;46777;47.482;19.054;2022-08-19T08:18:00;10.75;;;9.65;;
58758;SDS011;46777;47.482;19.054;2022-08-19T08:20:45;11.65;;;10.43;;
58758;SDS011;46777;47.482;19.054;2022-08-19T08:23:30;11.93;;;10.82;;
58758;SDS011;46777;47.482;19.054;2022-08-19T08:26:15;11.82;;;10.73;;
58758;SDS011;46777;47.482;19.054;2022-08-19T08:29:01;12.57;;;11.30;;
58758;SDS011;46777;47.482;19.054;2022-08-19T08:31:46;12.55;;;10.75;;
58758;SDS011;46777;47.482;19.054;2022-08-19T08:34:32;11.75;;;10.35;;
58758;SDS011;46777;47.482;19.054;2022-08-19T08:37:16;10.80;;;9.77;;
58758;SDS011;46777;47.482;19.054;2022-08-19T08:40:05;12.70;;;10.90;;
58758;SDS011;46777;47.482;19.054;2022-08-19T08:46:22;12.70;;;11.55;;
58758;SDS011;46777;47.482;19.054;2022-08-19T08:52:48;12.40;;;11.25;;
58758;SDS011;46777;47.482;19.054;2022-08-19T08:55:21;16.50;;;15.35;;
58758;SDS011;46777;47.482;19.054;2022-08-19T08:58:13;17.73;;;16.42;;
58758;SDS011;46777;47.482;19.054;2022-08-19T09:01:26;18.35;;;16.90;;
58758;SDS011;46777;47.482;19.054;2022-08-19T09:04:12;17.02;;;15.80;;
58758;SDS011;46777;47.482;19.054;2022-08-19T09:07:17;16.92;;;15.43;;
58758;SDS011;46777;47.482;19.054;2022-08-19T09:13:27;16.40;;;14.90;;
58758;SDS011;46777;47.482;19.054;2022-08-19T09:16:25;16.30;;;15.07;;
58758;SDS011;46777;47.482;19.054;2022-08-19T09:19:11;15.60;;;14.23;;
58758;SDS011;46777;47.482;19.054;2022-08-19T09:21:56;15.70;;;14.55;;
58758;SDS011;46777;47.482;19.054;2022-08-19T09:24:41;16.13;;;14.80;;
58758;SDS011;46777;47.482;19.054;2022-08-19T09:27:26;16.15;;;15.05;;
58758;SDS011;46777;47.482;19.054;2022-08-19T09:30:16;16.60;;;15.48;;
58758;SDS011;46777;47.482;19.054;2022-08-19T09:33:03;16.90;;;15.60;;
58758;SDS011;46777;47.482;19.054;2022-08-19T09:35:48;17.00;;;15.73;;
58758;SDS011;46777;47.482;19.054;2022-08-19T09:38:34;17.10;;;15.88;;
58758;SDS011;46777;47.482;19.054;2022-08-19T09:41:21;17.35;;;16.08;;
58758;SDS011;46777;47.482;19.054;2022-08-19T09:44:07;17.00;;;15.70;;
58758;SDS011;46777;47.482;19.054;2022-08-19T09:46:52;16.80;;;15.60;;
58758;SDS011;46777;47.482;19.054;2022-08-19T09:49:37;16.00;;;14.90;;
58758;SDS011;46777;47.482;19.054;2022-08-19T09:52:23;17.02;;;15.90;;
58758;SDS011;46777;47.482;19.054;2022-08-19T09:55:08;16.90;;;15.70;;
58758;SDS011;46777;47.482;19.054;2022-08-19T09:57:54;17.02;;;15.75;;
58758;SDS011;46777;47.482;19.054;2022-08-19T10:00:39;17.45;;;16.05;;
58758;SDS011;46777;47.482;19.054;2022-08-19T10:03:24;17.63;;;16.40;;
58758;SDS011;46777;47.482;19.054;2022-08-19T10:06:09;17.48;;;16.15;;
58758;SDS011;46777;47.482;19.054;2022-08-19T10:08:54;17.02;;;15.60;;
58758;SDS011;46777;47.482;19.054;2022-08-19T10:11:39;17.85;;;16.48;;
58758;SDS011;46777;47.482;19.054;2022-08-19T10:14:25;15.45;;;14.18;;
58758;SDS011;46777;47.482;19.054;2022-08-19T10:17:10;17.13;;;15.73;;
58758;SDS011;46777;47.482;19.054;2022-08-19T10:19:55;16.25;;;14.98;;
58758;SDS011;46777;47.482;19.054;2022-08-19T10:22:40;18.08;;;16.75;;
58758;SDS011;46777;47.482;19.054;2022-08-19T10:25:25;18.13;;;16.85;;
58758;SDS011;46777;47.482;19.054;2022-08-19T10:28:10;18.73;;;17.13;;
58758;SDS011;46777;47.482;19.054;2022-08-19T10:30:56;17.45;;;16.17;;
58758;SDS011;46777;47.482;19.054;2022-08-19T10:33:41;17.35;;;16.00;;
58758;SDS011;46777;47.482;19.054;2022-08-19T10:36:27;17.08;;;15.88;;
58758;SDS011;46777;47.482;19.054;2022-08-19T10:39:16;18.10;;;16.58;;
58758;SDS011;46777;47.482;19.054;2022-08-19T10:42:05;16.20;;;15.07;;
58758;SDS011;46777;47.482;19.054;2022-08-19T10:44:51;17.00;;;15.80;;
58758;SDS011;46777;47.482;19.054;2022-08-19T10:47:35;17.40;;;16.25;;
58758;SDS011;46777;47.482;19.054;2022-08-19T10:50:21;18.10;;;16.77;;
58758;SDS011;46777;47.482;19.054;2022-08-19T10:53:24;17.13;;;15.70;;
58758;SDS011;46777;47.482;19.054;2022-08-19T10:56:10;16.90;;;15.63;;
58758;SDS011;46777;47.482;19.054;2022-08-19T10:59:13;14.23;;;13.13;;
58758;SDS011;46777;47.482;19.054;2022-08-19T11:01:59;20.15;;;18.67;;
58758;SDS011;46777;47.482;19.054;2022-08-19T11:04:45;17.25;;;16.05;;
58758;SDS011;46777;47.482;19.054;2022-08-19T11:07:30;18.17;;;16.92;;
58758;SDS011;46777;47.482;19.054;2022-08-19T11:10:14;17.88;;;16.67;;
58758;SDS011;46777;47.482;19.054;2022-08-19T11:13:03;16.67;;;15.52;;
58758;SDS011;46777;47.482;19.054;2022-08-19T11:15:55;18.35;;;16.98;;
58758;SDS011;46777;47.482;19.054;2022-08-19T11:18:43;18.83;;;17.58;;
58758;SDS011;46777;47.482;19.054;2022-08-19T11:21:31;19.08;;;17.63;;
58758;SDS011;46777;47.482;19.054;2022-08-19T11:24:19;17.65;;;16.42;;
58758;SDS011;46777;47.482;19.054;2022-08-19T11:27:06;19.60;;;18.30;;
58758;SDS011;46777;47.482;19.054;2022-08-19T11:29:55;17.83;;;16.50;;
58758;SDS011;46777;47.482;19.054;2022-08-19T11:32:40;18.52;;;17.30;;
58758;SDS011;46777;47.482;19.054;2022-08-19T11:35:26;17.80;;;16.70;;
58758;SDS011;46777;47.482;19.054;2022-08-19T11:38:10;16.23;;;15.13;;
58758;SDS011;46777;47.482;19.054;2022-08-19T11:40:59;17.40;;;15.70;;
58758;SDS011;46777;47.482;19.054;2022-08-19T11:43:46;16.67;;;15.48;;
58758;SDS011;46777;47.482;19.054;2022-08-19T11:46:31;16.67;;;15.50;;
58758;SDS011;46777;47.482;19.054;2022-08-19T11:49:17;17.58;;;16.13;;
58758;SDS011;46777;47.482;19.054;2022-08-19T11:52:03;18.55;;;17.15;;
58758;SDS011;46777;47.482;19.054;2022-08-19T11:54:48;17.67;;;16.35;;
58758;SDS011;46777;47.482;19.054;2022-08-19T11:57:32;18.02;;;16.73;;
58758;SDS011;46777;47.482;19.054;2022-08-19T12:00:17;19.55;;;18.20;;
58758;SDS011;46777;47.482;19.054;2022-08-19T12:03:02;18.75;;;16.92;;
58758;SDS011;46777;47.482;19.054;2022-08-19T12:05:47;19.30;;;17.98;;
58758;SDS011;46777;47.482;19.054;2022-08-19T12:08:32;21.35;;;19.95;;
58758;SDS011;46777;47.482;19.054;2022-08-19T12:11:17;21.23;;;19.77;;
58758;SDS011;46777;47.482;19.054;2022-08-19T12:14:02;19.05;;;17.75;;
58758;SDS011;46777;47.482;19.054;2022-08-19T12:16:47;20.27;;;18.67;;
58758;SDS011;46777;47.482;19.054;2022-08-19T12:19:32;17.42;;;16.13;;
58758;SDS011;46777;47.482;19.054;2022-08-19T12:22:16;19.75;;;17.92;;
58758;SDS011;46777;47.482;19.054;2022-08-19T12:25:02;19.70;;;17.77;;
58758;SDS011;46777;47.482;19.054;2022-08-19T12:27:48;18.90;;;17.50;;
58758;SDS011;46777;47.482;19.054;2022-08-19T12:30:34;17.88;;;16.23;;
58758;SDS011;46777;47.482;19.054;2022-08-19T12:33:22;19.27;;;17.48;;
58758;SDS011;46777;47.482;19.054;2022-08-19T12:36:10;20.13;;;18.42;;
58758;SDS011;46777;47.482;19.054;2022-08-19T12:38:57;18.88;;;17.10;;
58758;SDS011;46777;47.482;19.054;2022-08-19T12:41:43;20.40;;;18.48;;
58758;SDS011;46777;47.482;19.054;2022-08-19T12:44:28;20.45;;;18.55;;
58758;SDS011;46777;47.482;19.054;2022-08-19T12:47:14;20.30;;;18.60;;
58758;SDS011;46777;47.482;19.054;2022-08-19T12:49:59;19.88;;;18.23;;
58758;SDS011;46777;47.482;19.054;2022-08-19T12:52:44;20.63;;;19.08;;
58758;SDS011;46777;47.482;19.054;2022-08-19T12:55:29;22.65;;;20.95;;
58758;SDS011;46777;47.482;19.054;2022-08-19T12:58:14;23.58;;;21.90;;
58758;SDS011;46777;47.482;19.054;2022-08-19T13:01:00;23.13;;;21.48;;
58758;SDS011;46777;47.482;19.054;2022-08-19T13:03:51;24.20;;;22.40;;
58758;SDS011;46777;47.482;19.054;2022-08-19T13:06:36;23.63;;;22.05;;
58758;SDS011;46777;47.482;19.054;2022-08-19T13:09:21;22.83;;;21.13;;
58758;SDS011;46777;47.482;19.054;2022-08-19T13:12:06;23.27;;;21.40;;
58758;SDS011;46777;47.482;19.054;2022-08-19T13:14:52;23.58;;;21.73;;
58758;SDS011;46777;47.482;19.054;2022-08-19T13:17:38;21.17;;;19.77;;
58758;SDS011;46777;47.482;19.054;2022-08-19T13:20:22;22.38;;;20.80;;
58758;SDS011;46777;47.482;19.054;2022-08-19T13:23:08;20.63;;;19.08;;
58758;SDS011;46777;47.482;19.054;2022-08-19T13:26:00;19.15;;;17.50;;
58758;SDS011;46777;47.482;19.054;2022-08-19T13:28:48;16.42;;;14.90;;
58758;SDS011;46777;47.482;19.054;2022-08-19T13:31:51;16.90;;;15.20;;
58758;SDS011;46777;47.482;19.054;2022-08-19T13:34:55;16.88;;;15.35;;
58758;SDS011;46777;47.482;19.054;2022-08-19T13:37:40;16.67;;;15.13;;
58758;SDS011;46777;47.482;19.054;2022-08-19T13:40:25;16.52;;;14.98;;
58758;SDS011;46777;47.482;19.054;2022-08-19T13:43:10;16.33;;;14.82;;
58758;SDS011;46777;47.482;19.054;2022-08-19T13:45:55;15.38;;;13.98;;
58758;SDS011;46777;47.482;19.054;2022-08-19T13:48:40;16.20;;;14.57;;
58758;SDS011;46777;47.482;19.054;2022-08-19T13:51:25;15.88;;;14.30;;
58758;SDS011;46777;47.482;19.054;2022-08-19T13:54:11;17.13;;;15.63;;
58758;SDS011;46777;47.482;19.054;2022-08-19T13:56:56;17.10;;;15.52;;
58758;SDS011;46777;47.482;19.054;2022-08-19T13:59:41;32.97;;;16.27;;
58758;SDS011;46777;47.482;19.054;2022-08-19T14:02:26;20.48;;;15.32;;
58758;SDS011;46777;47.482;19.054;2022-08-19T14:05:12;26.23;;;14.60;;
58758;SDS011;46777;47.482;19.054;2022-08-19T14:07:59;17.70;;;13.68;;
58758;SDS011;46777;47.482;19.054;2022-08-19T14:10:44;21.67;;;15.27;;
58758;SDS011;46777;47.482;19.054;2022-08-19T14:13:29;24.30;;;14.18;;
58758;SDS011;46777;47.482;19.054;2022-08-19T14:16:15;19.02;;;14.30;;
58758;SDS011;46777;47.482;19.054;2022-08-19T14:19:00;16.85;;;14.98;;
58758;SDS011;46777;47.482;19.054;2022-08-19T14:21:44;18.05;;;11.70;;
58758;SDS011;46777;47.482;19.054;2022-08-19T14:24:29;17.70;;;11.82;;
58758;SDS011;46777;47.482;19.054;2022-08-19T14:27:14;17.13;;;11.27;;
58758;SDS011;46777;47.482;19.054;2022-08-19T14:29:59;16.90;;;10.45;;
58758;SDS011;46777;47.482;19.054;2022-08-19T14:32:44;14.45;;;9.90;;
58758;SDS011;46777;47.482;19.054;2022-08-19T14:35:29;13.30;;;10.05;;
58758;SDS011;46777;47.482;19.054;2022-08-19T14:38:19;17.38;;;9.52;;
58758;SDS011;46777;47.482;19.054;2022-08-19T14:41:12;15.48;;;9.73;;
58758;SDS011;46777;47.482;19.054;2022-08-19T14:44:01;12.13;;;9.95;;
58758;SDS011;46777;47.482;19.054;2022-08-19T14:46:46;14.77;;;9.57;;
58758;SDS011;46777;47.482;19.054;2022-08-19T14:49:31;18.23;;;10.18;;
58758;SDS011;46777;47.482;19.054;2022-08-19T14:52:15;19.35;;;9.48;;
58758;SDS011;46777;47.482;19.054;2022-08-19T14:55:01;13.50;;;9.85;;
58758;SDS011;46777;47.482;19.054;2022-08-19T14:57:46;15.13;;;9.45;;
58758;SDS011;46777;47.482;19.054;2022-08-19T15:00:31;17.63;;;9.45;;
58758;SDS011;46777;47.482;19.054;2022-08-19T15:03:16;12.07;;;6.60;;
58758;SDS011;46777;47.482;19.054;2022-08-19T15:06:01;15.25;;;10.40;;
58758;SDS011;46777;47.482;19.054;2022-08-19T15:08:47;15.20;;;8.20;;
58758;SDS011;46777;47.482;19.054;2022-08-19T15:11:32;12.85;;;7.85;;
58758;SDS011;46777;47.482;19.054;2022-08-19T15:14:18;14.40;;;8.10;;
58758;SDS011;46777;47.482;19.054;2022-08-19T15:17:05;13.63;;;8.25;;
58758;SDS011;46777;47.482;19.054;2022-08-19T15:19:50;14.23;;;9.18;;
58758;SDS011;46777;47.482;19.054;2022-08-19T15:22:34;11.80;;;9.13;;
58758;SDS011;46777;47.482;19.054;2022-08-19T15:25:19;11.95;;;9.15;;
58758;SDS011;46777;47.482;19.054;2022-08-19T15:28:04;16.48;;;9.07;;
58758;SDS011;46777;47.482;19.054;2022-08-19T15:30:49;12.45;;;7.60;;
58758;SDS011;46777;47.482;19.054;2022-08-19T15:33:34;12.70;;;8.48;;
58758;SDS011;46777;47.482;19.054;2022-08-19T15:36:27;10.88;;;7.82;;
58758;SDS011;46777;47.482;19.054;2022-08-19T15:39:11;14.35;;;9.02;;
58758;SDS011;46777;47.482;19.054;2022-08-19T15:41:56;11.45;;;8.52;;
58758;SDS011;46777;47.482;19.054;2022-08-19T15:44:44;14.20;;;8.95;;
58758;SDS011;46777;47.482;19.054;2022-08-19T15:47:29;13.57;;;8.45;;
58758;SDS011;46777;47.482;19.054;2022-08-19T15:50:16;16.35;;;8.32;;
58758;SDS011;46777;47.482;19.054;2022-08-19T15:53:06;17.30;;;7.28;;
58758;SDS011;46777;47.482;19.054;2022-08-19T15:55:52;17.35;;;7.88;;
58758;SDS011;46777;47.482;19.054;2022-08-19T15:58:37;13.23;;;7.43;;
58758;SDS011;46777;47.482;19.054;2022-08-19T16:01:41;19.52;;;8.43;;
58758;SDS011;46777;47.482;19.054;2022-08-19T16:04:55;13.27;;;11.82;;
58758;SDS011;46777;47.482;19.054;2022-08-19T16:07:59;12.63;;;10.60;;
58758;SDS011;46777;47.482;19.054;2022-08-19T16:10:44;11.10;;;9.98;;
58758;SDS011;46777;47.482;19.054;2022-08-19T16:13:28;16.05;;;10.55;;
58758;SDS011;46777;47.482;19.054;2022-08-19T16:16:14;13.45;;;10.57;;